SEASEATTLE-TACOMA INTL
METARs for nearby airports:
N 0 432' KSEA 171353Z 00000KT 10SM FEW070 OVC140 09/02 A2946
NE 4 32' KRNT 171353Z 00000KT 10SM CLR 09/04 A2946
N 4 21' KBFI 171353Z 00000KT 10SM CLR 08/04 A2947
SW 15 294' KTIW 171353Z 00000KT 10SM SCT070 06/03 A2946
W 18 444' KPWT 171356Z 07009KT 10SM SCT060 OVC080 06/04 A2945
S 19 322' KTCM 171258Z 00000KT 10SM CLR 04/04 A2945
S 20 537' KPLU 171335Z 00000KT 10SM FEW080 SCT120 04/04 A2945
SW 24 300' KGRF 171346Z 12003KT 10SM -RA FEW046 BKN065 04/04 A2945
N 27 607' KPAE 171353Z 08010KT 10SM FEW120 08/02 A2947
W 36 272' KSHN 171353Z 36006KT 10SM OVC080 07/04 A2943
SW 37 207' KOLM 171354Z 02003KT 8SM BKN095 03/03 A2944
N 43 141' KAWO 171356Z 00000KT 10SM BKN055 OVC100 06/04 A2948
SW 53 177' KCLS 171355Z 01004KT 4SM BR BKN005 OVC075 05/05 A2943
N 55 47' KNUW 171356Z 10008KT 10SM SCT080 BKN140 OVC220 08/04 A2950
NW 60 13' KNOW 171330Z 00000KT 10SM BKN075 BKN090 07/04 A2941
N 61 145' KBVS 171335Z 08011KT 10SM SCT065 OVC100 06/05 A2948
NW 62 291' KCLM 171353Z 23004KT 10SM BKN090 05/03 A2942
NW 70 112' KFHR 171353Z 36004KT 10SM OVC043 07/04 A2949
SW 72 17' KHQM 171353Z 05014KT 10SM OVC060 08/06 A2936
E 76 1763' KELN 171353Z 00000KT 1SM -SN BR BKN013 OVC018 01/M01 A2960
N 79 34' KORS 171355Z 00000KT 10SM OVC047 07/04 A2949
N 81 171' KBLI 171353Z 02009KT 10SM FEW050 BKN060 OVC100 05/02 A2948
S 83 20' KKLS 171356Z 00000KT 10SM -RA FEW055 BKN075 03/03 A2946
NW 84 64' CYYJ 171300Z 25004KT 240V310 15SM FEW040 BKN055 BKN079 OVC110 04/03 A2949
E 85 1248' KEAT 171355Z 29005KT 1 1/4SM -SN BR OVC013 M01/M02 A2966
SE 89 1098' KYKM 171353Z 25007KT 6SM -SN BR BKN008 OVC013 01/M01 A2964
W 95 193' KUIL 171353Z 08004KT 10SM OVC060 08/M01 A2934
TAFs for nearby airports:
N 0 432' KSEA TAF KSEA 171131Z 1712/1818 09008KT P6SM BKN070 BKN120
  FM171600 09008KT P6SM SCT070 BKN120
  FM180200 17012KT P6SM -RA BKN050 OVC080
  FM181100 17012KT P6SM BKN022 OVC035
  FM181700 17008KT P6SM SCT035 BKN050 BKN070
N 4 21' KBFI TAF KBFI 171131Z 1712/1812 VRB03KT P6SM BKN070 BKN120
  FM171600 VRB03KT P6SM SCT070 BKN120
  FM180200 16010KT P6SM -RA BKN050 OVC080
  FM181100 16010KT P6SM BKN025 OVC040
W 18 444' KPWT TAF KPWT 171131Z 1712/1812 03006KT 5SM BR SCT070 BKN120
  TEMPO 1712/1715 1SM BR
  FM171700 03006KT P6SM SCT070 BKN120
  FM180000 15010KT P6SM -RA BKN045 OVC070
  FM180600 18012KT P6SM -RA BKN015 OVC030
S 19 322' KTCM TAF KTCM 171308Z 1713/1819 05009KT 9999 BKN060 620703 QNH2942INS
  BECMG 1717/1718 05009KT 9999 SCT015 BKN040 620703 QNH2949INS
  BECMG 1723/1724 18012G20KT 8000 -SHRA BKN040 610703 QNH2950INS
  BECMG 1802/1803 18018G25KT 8000 -SHRA BKN020 610604 520009 QNH2960INS
  BECMG 1807/1808 18012KT 8000 -SHRA BKN030 610307 QNH2992INS TX10/1723Z TN02/1713Z
SW 24 300' KGRF TAF KGRF 171309Z 1713/1819 05009KT 9999 BKN060 620703 QNH2942INS
  BECMG 1717/1718 05009KT 9999 SCT015 BKN040 620703 QNH2949INS
  BECMG 1723/1724 18012G20KT 8000 -SHRA BKN040 610703 QNH2950INS
  BECMG 1802/1803 18018G25KT 8000 -SHRA BKN020 610604 520009 QNH2960INS
  BECMG 1807/1808 18012KT 8000 -SHRA BKN030 610307 QNH2992INS TX10/1723Z TN02/1713Z
N 27 607' KPAE TAF KPAE 171131Z 1712/1812 14014KT P6SM -RA OVC050
  FM171500 11010KT P6SM BKN070 BKN120
  FM171800 11010KT P6SM SCT070 BKN120
  FM180300 16014G24KT P6SM -RA BKN040 OVC070
  FM180900 16014G24KT P6SM -RA BKN022 OVC035
SW 37 207' KOLM TAF KOLM 171131Z 1712/1812 VRB03KT P6SM SCT120
  FM171400 VRB03KT 1SM BR BKN002
  TEMPO 1718/1719 4SM BR SCT002 BKN120
  FM171900 VRB03KT P6SM SCT070 BKN120
  FM180000 19012KT P6SM -RA BKN040 OVC070
  FM180600 19012KT P6SM -RA SCT012 OVC022
N 55 47' KNUW TAF TAF KNUW 1707/1807 12012KT 9999 VCSH FEW030 SCT090 BKN140 BKN220 641404 520109 QNH2945INS
  TEMPO 1711/1717 9000 -SHRA BR SCT010 BKN025 OVC050
  FM171700 13015G24KT 9999 VCSH SCT030 BKN050 BKN100 BKN160 640609 641503 520109 QNH2946INS
  BECMG 1720/1721 13021G30KT 9999 VCSH SCT030 BKN050 BKN100 BKN160 640609 641503 520009 520909 QNH2946INS
  TEMPO 1803/1807 8000 -SHRA BR SCT008 BKN015 OVC040 T05/1713Z T12/1721Z FS30128
NW 62 291' KCLM TAF KCLM 171131Z 1712/1812 VRB03KT P6SM SCT070 BKN120
  FM180200 VRB03KT P6SM -RA BKN040 OVC070
SW 72 17' KHQM TAF KHQM 171131Z 1712/1812 05018G25KT P6SM SCT070 BKN120
  FM172000 08018G25KT P6SM SCT035 OVC060
  FM172200 15020G30KT P6SM -RA OVC035
  FM180500 18020G30KT 5SM -SHRA SCT015 OVC025
N 81 171' KBLI TAF KBLI 171131Z 1712/1812 03006KT P6SM -RA OVC050 WS020/17035KT
  FM171700 03006KT P6SM SCT070 BKN120
  FM180300 13012KT P6SM -RA BKN045 OVC070
  FM180800 15012G22KT P6SM -RA BKN030 OVC045
E 85 1248' KEAT KEAT 171139Z 1712/1812 28007KT 1 1/2SM -SN BR OVC008
  FM171700 28003KT 2SM BR VCSH OVC008
  FM172000 00000KT 5SM BR SCT008 OVC012
  FM180200 16003KT 3SM -RASN OVC007
SE 89 1098' KYKM KYKM 171239Z 1713/1812 26007KT 2SM -SN BR BKN008 OVC025
  FM171500 27005KT 5SM -SHSN BR SCT008 OVC025
  FM171800 VRB05KT P6SM -SHSN OVC030
  FM180000 VRB04KT 1SM -SN BR OVC010
  FM180700 VRB04KT 6SM BR SCT008 BKN080
Area forecast:
000
FAUS46 KKCI 101945
FA6W  
SFOC FA 101945
SYNOPSIS AND VFR CLDS/WX
SYNOPSIS VALID UNTIL 111400
CLDS/WX VALID UNTIL 110800...OTLK VALID 110800-111400
WA OR CA AND CSTL WTRS
.
SEE AIRMET SIERRA FOR IFR CONDS AND MTN OBSCN.
TS IMPLY SEV OR GTR TURB SEV ICE LLWS AND IFR CONDS.
NON MSL HGTS DENOTED BY AGL OR CIG.
.
SYNOPSIS...UPR LVL TROF WAS LOCATED NR 130W. MOIST SWLY FLOW
EXTDS FROM PAC NW EWD INTO NRN ROCKIES. HIGH PRES RIDGE WAS OVR
MUCH OF THE REST OF THE AREA. BY 14Z...UPR LVL TROF WILL EXTD
FROM WA-OR SWD INTO CA.  ..STREIB..
.
WA CASCDS WWD
CSTL SXNS
CSTLN-INLAND...SCT-BKN025 BKN035-050 TOPS 120-140. ISOL -SHRA.
   OTLK...MVFR CIGS SHRA BR.
PUGET SOUND-INTR VLY...SCT-BKN020 BKN-OVC035-050 TOPS 160 BKN CI.
   WDLY SCT -SHRA. OTLK...MVFR CIGS SHRA.
CASCDS...BKN-OVC050-070 TOPS FL180. BKN CI ABV. WDLY SCT -SHRA.
   OTLK...MVFR CIGS SHRA.
.
WA E OF CASCDS
CNTRL WA...SCT140 OVC CI. BECMG 2302 SCT080 BKN120 LYRD FL240.
   OTLK...VFR.
ERN WA...SCT-BKN140-160 LYRD FL240. BECMG 0508 BKN080 OVC120
   LYRD FL240 ISOL -SHRA DVLPG. OTLK...VFR.
.
OR CASCDS WWD
CSTL SXNS
CSTLN-INLAND...SCT-BKN020 BKN-OVC035-050 TOPS FL180. WDLY SCT
   -SHRA. OTLK...MVFR CIGS SHRA.
WILLAMETTE VLY/SWRN INTR...SCT-BKN020 BKN-OVC035-050 TOPS FL180.
   WDLY SCT -SHRA. OTLK...MVFR CIGS SHRA.
CASCDS...SCT-BKN060 BKN-OVC080-100 TOPS FL180 ISOL -SHRA.
   OTLK...MVFR CIGS SHRA.
.
OR E OF CASCDS
CNTRL...SCT100-120 BKN150 LYRD FL240. OTLK...VFR.
ERN...SCT130-150 BKN CI. BECMG 0205 OVC120-140 LYRD FL240.
   OTLK...VFR.
.
NRN CA...STS-SAC-TVL LN NWD
CSTL SXNS...
   FOT NWD...SCT025 BKN CI ABV. BECMG 0205 SCT020 OVC050 TOPS
      160. ISOL -SHRA. OTLK...IFR CIGS.
   S OF FOT...SCT-BKN010 TOPS 030-040. OTLK...IFR CIGS.
REST OF AREA...SKC OCNL SCT CI. OCNL VYS 3-5SM FU HZ.
   OTLK...VFR.
SAC VLY...
   NRN AND CNTRL SXNS...SKC. OTLK...VFR.
   SRN SXNS...SKC. OCNL VIS 3-5SM FU HZ. OTLK...MVFR FU HZ.
SHASTA-SISKIYOUS-NERN CA...
NRN SIERRAS...SKC OCNL SCT CI. WINDS SLY G25KT. OTLK...VFR WIND.
.
CNTRL CA
CSTL SXNS...
   CSTLN...SKC OCNL SCT010. BECMG 0508 OCNL CIGS BKN-SCT010 TOPS
      020-030. OTLK...IFR CIGS.
   INLAND...SKC. OTLK...VFR BECMG 1114 IFR CIGS BR.
SAN JOAQUIN VLY...SKC. OTLK...VFR.
SRN SIERRAS..SKC. OTLK...VFR.
.
SRN CA..VBG-NID-60NNW BIH LN SWD
CSTL SXNS...
   CSTLN...
      EXTRM SRN SXNS...SKC. BECMG 0205 SCT010. BECMG 0508 CIGS
         BKN-OVC010 TOPS 030. OTLK...IFR CIGS.
      REST OF AREA...SKC. OTLK...VFR BECMG 0811 IFR CIGS BR.
   INLAND...SKC OCNL FEW CI. OTLK...VFR.
INTR MTNS-MOJAVE-SRN DESERTS...SKC OCNL FEW CI. OTLK...VFR.
.
CSTL WTRS
WA...SCT-BKN035-050 TOPS 100-120. ISOL -SHRA. OTLK...VFR.
OR...
NWRN HLF...SCT-BKN035-050 TOPS 100-120. ISOL -SHRA. OTLK...VFR.
SERN HLF...SCT-BKN025 BKN035-050 TOPS FL180 BKN CI ABV. WDLY SCT
   -SHRA. OTLK...MVFR CIGS SHRA.
CA...
NRN CA...
   FOT NWD...SCT025 BKN CI ABV. BECMG 0205 SCT020 OVC050 TOPS
      160. ISOL -SHRA. OTLK...IFR CIGS.
   S OF FOT...SCT-BKN010 TOPS 030-040. OTLK...IFR CIGS.
CNTRL CA...SCT-BKN010 TOPS 030-040. OTLK...IFR CIGS.
SRN CA...
   OUTER CSTL WTRS...CIGS BKN010-020 TOPS 030-050.
      OTLK...IFR CIGS.
   ADJ CSTL WTRS...SKC. OCNL AGL SCT010. OTLK...VFR BECMG 0811
      IFR CIGS BR.
.
THE AREA FORECAST WILL TERMINATE AT 2359Z ON 10 OCTOBER 2017. IN
PLACE OF THE AREA FORECAST...PLEASE SEE THE GRAPHICAL FORECAST AT
WWW.AVIATIONWEATHER.GOV/GFA. GRAPHICAL AND TEXT AIRMETS WILL
CONTINUE AS REGULARLY SCHEDULED.
....

Shortcut to this page: http://wxbay.com.

Data may contain errors.